createdAt,value
2018-03-04T00:02:26.219Z,24.40
2018-03-04T00:04:52.846Z,23.02
2018-03-04T00:07:19.471Z,21.60
2018-03-04T00:09:46.099Z,21.75
2018-03-04T00:12:12.744Z,20.23
2018-03-04T00:14:39.396Z,21.55
2018-03-04T00:17:06.019Z,26.67
2018-03-04T00:19:32.663Z,20.52
2018-03-04T00:21:59.290Z,23.00
2018-03-04T00:24:25.950Z,25.30
2018-03-04T00:26:52.572Z,25.10
2018-03-04T00:29:19.214Z,25.98
2018-03-04T00:31:45.864Z,21.95
2018-03-04T00:34:12.502Z,26.70
2018-03-04T00:36:39.151Z,25.75
2018-03-04T00:39:05.791Z,19.92
2018-03-04T00:41:32.427Z,23.50
2018-03-04T00:43:59.055Z,25.65
2018-03-04T00:46:25.690Z,24.60
2018-03-04T00:48:52.332Z,24.05
2018-03-04T00:51:18.968Z,21.33
2018-03-04T00:53:45.606Z,23.55
2018-03-04T00:56:12.232Z,23.38
2018-03-04T00:58:38.864Z,15.70
2018-03-04T01:01:05.498Z,18.27
2018-03-04T01:03:32.130Z,23.05
2018-03-04T01:05:58.767Z,23.98
2018-03-04T01:08:25.406Z,21.62
2018-03-04T01:10:52.038Z,24.05
2018-03-04T01:13:18.695Z,24.37
2018-03-04T01:15:45.322Z,28.17
2018-03-04T01:18:11.955Z,22.75
2018-03-04T01:20:38.591Z,27.65
2018-03-04T01:23:05.219Z,24.67
2018-03-04T01:25:31.887Z,24.50
2018-03-04T01:27:58.537Z,28.42
2018-03-04T01:30:25.181Z,25.25
2018-03-04T01:32:51.822Z,25.15
2018-03-04T01:35:18.449Z,27.37
2018-03-04T01:37:45.152Z,24.67
2018-03-04T01:40:11.836Z,21.30
2018-03-04T01:42:38.614Z,26.77
2018-03-04T01:45:05.374Z,24.00
2018-03-04T01:47:32.023Z,25.58
2018-03-04T01:49:58.676Z,24.15
2018-03-04T01:52:25.314Z,22.50
2018-03-04T01:54:51.987Z,21.17
2018-03-04T01:57:18.625Z,27.27
2018-03-04T01:59:45.280Z,24.85
2018-03-04T02:02:11.910Z,25.62
2018-03-04T02:04:38.578Z,28.05
2018-03-04T02:07:05.222Z,30.60
2018-03-04T02:09:31.874Z,24.95
2018-03-04T02:11:58.509Z,29.02
2018-03-04T02:14:25.158Z,21.70
2018-03-04T02:16:51.787Z,28.35
2018-03-04T02:19:18.451Z,23.70
2018-03-04T02:21:45.082Z,29.10
2018-03-04T02:24:11.726Z,28.67
2018-03-04T02:26:40.309Z,23.05
2018-03-04T02:29:06.971Z,24.37
2018-03-04T02:31:33.608Z,25.88
2018-03-04T02:34:00.742Z,28.87
2018-03-04T02:36:27.376Z,23.38
2018-03-04T02:38:54.014Z,28.20
2018-03-04T02:41:20.648Z,29.52
2018-03-04T02:43:47.298Z,30.88
2018-03-04T02:46:13.943Z,23.08
2018-03-04T02:48:40.592Z,29.48
2018-03-04T02:51:07.264Z,25.42
2018-03-04T02:53:34.348Z,27.17
2018-03-04T02:56:00.988Z,22.23
2018-03-04T02:58:27.625Z,27.45
2018-03-04T03:00:54.275Z,29.20
2018-03-04T03:03:20.902Z,30.27
2018-03-04T03:05:47.547Z,29.45
2018-03-04T03:08:14.178Z,29.55
2018-03-04T03:10:40.821Z,26.20
2018-03-04T03:13:07.444Z,28.38
2018-03-04T03:15:34.101Z,21.25
2018-03-04T03:18:00.735Z,30.27
2018-03-04T03:20:27.364Z,25.88
2018-03-04T03:22:53.987Z,21.65
2018-03-04T03:25:20.627Z,28.17
2018-03-04T03:27:47.259Z,24.92
2018-03-04T03:30:13.893Z,30.60
2018-03-04T03:32:40.525Z,25.70
2018-03-04T03:35:07.163Z,24.25
2018-03-04T03:37:33.801Z,28.50
2018-03-04T03:40:00.436Z,25.60
2018-03-04T03:42:27.082Z,27.77
2018-03-04T03:44:53.718Z,32.10
2018-03-04T03:47:20.360Z,29.00
2018-03-04T03:49:46.996Z,27.10
2018-03-04T03:52:13.663Z,28.58
2018-03-04T03:54:40.302Z,31.02
2018-03-04T03:57:06.942Z,32.15
2018-03-04T03:59:33.575Z,31.87
2018-03-04T04:02:00.242Z,26.37
2018-03-04T04:04:26.872Z,29.98
2018-03-04T04:06:53.541Z,32.03
2018-03-04T04:09:20.182Z,32.33
2018-03-04T04:11:46.845Z,24.73
2018-03-04T04:14:13.479Z,33.25
2018-03-04T04:16:40.116Z,24.70
2018-03-04T04:19:06.816Z,30.48
2018-03-04T04:21:33.503Z,25.35
2018-03-04T04:24:00.210Z,32.17
2018-03-04T04:26:26.904Z,32.47
2018-03-04T04:28:53.512Z,26.17
2018-03-04T04:31:20.149Z,28.83
2018-03-04T04:33:46.789Z,31.70
2018-03-04T04:36:13.425Z,32.83
2018-03-04T04:38:40.060Z,25.30
2018-03-04T04:41:06.704Z,30.48
2018-03-04T04:43:33.351Z,29.90
2018-03-04T04:45:59.992Z,27.23
2018-03-04T04:48:26.642Z,28.80
2018-03-04T04:50:53.283Z,34.28
2018-03-04T04:53:19.937Z,36.05
2018-03-04T04:55:46.579Z,20.85
2018-03-04T04:58:13.253Z,28.55
2018-03-04T05:00:39.919Z,25.80
2018-03-04T05:03:06.573Z,33.95
2018-03-04T05:05:33.214Z,30.23
2018-03-04T05:07:59.878Z,27.62
2018-03-04T05:10:26.517Z,32.03
2018-03-04T05:12:53.161Z,23.10
2018-03-04T05:15:19.808Z,34.10
2018-03-04T05:17:46.445Z,33.22
2018-03-04T05:20:13.089Z,21.35
2018-03-04T05:22:39.748Z,33.25
2018-03-04T05:25:06.440Z,30.23
2018-03-04T05:27:33.099Z,21.33
2018-03-04T05:29:59.744Z,31.30
2018-03-04T05:32:26.392Z,30.65
2018-03-04T05:34:53.045Z,39.55
2018-03-04T05:37:19.681Z,34.63
2018-03-04T05:39:46.322Z,30.02
2018-03-04T05:42:12.955Z,27.52
2018-03-04T05:44:39.597Z,25.20
2018-03-04T05:47:06.233Z,33.97
2018-03-04T05:49:32.883Z,29.35
2018-03-04T05:51:59.547Z,36.53
2018-03-04T05:54:26.207Z,36.30
2018-03-04T05:56:52.877Z,37.55
2018-03-04T05:59:19.527Z,34.97
2018-03-04T06:01:46.169Z,32.63
2018-03-04T06:04:12.848Z,33.85
2018-03-04T06:06:39.496Z,32.85
2018-03-04T06:09:06.192Z,34.30
2018-03-04T06:11:32.829Z,36.58
2018-03-04T06:13:59.460Z,30.27
2018-03-04T06:16:26.120Z,37.22
2018-03-04T06:18:52.766Z,35.22
2018-03-04T06:21:19.407Z,37.17
2018-03-04T06:23:46.056Z,40.20
2018-03-04T06:26:12.700Z,44.90
2018-03-04T06:28:39.348Z,45.80
2018-03-04T06:31:05.990Z,47.42
2018-03-04T06:33:32.657Z,45.35
2018-03-04T06:35:59.321Z,54.42
2018-03-04T06:38:25.951Z,54.80
2018-03-04T06:40:52.589Z,60.55
2018-03-04T06:43:19.266Z,66.53
2018-03-04T06:45:45.904Z,70.80
2018-03-04T06:48:12.560Z,70.40
2018-03-04T06:50:39.192Z,56.15
2018-03-04T06:53:05.835Z,54.60
2018-03-04T06:55:32.876Z,55.75
2018-03-04T06:57:59.649Z,48.55
2018-03-04T07:00:26.279Z,42.80
2018-03-04T07:02:52.938Z,42.83
2018-03-04T07:05:19.600Z,28.02
2018-03-04T07:07:46.255Z,40.28
2018-03-04T07:10:12.879Z,41.47
2018-03-04T07:12:39.549Z,38.72
2018-03-04T07:15:06.189Z,39.50
2018-03-04T07:17:32.859Z,30.75
2018-03-04T07:19:59.496Z,39.10
2018-03-04T07:22:26.143Z,28.42
2018-03-04T07:24:52.784Z,31.10
2018-03-04T07:27:19.462Z,39.97
2018-03-04T07:29:46.109Z,40.45
2018-03-04T07:32:12.773Z,35.70
2018-03-04T07:34:39.428Z,38.03
2018-03-04T07:37:06.178Z,33.70
2018-03-04T07:39:32.930Z,39.95
2018-03-04T07:41:59.692Z,43.90
2018-03-04T07:44:26.420Z,41.03
2018-03-04T07:46:53.140Z,38.67
2018-03-04T07:49:19.870Z,42.03
2018-03-04T07:51:46.591Z,43.75
2018-03-04T07:54:13.336Z,35.70
2018-03-04T07:56:40.072Z,41.53
2018-03-04T07:59:07.709Z,43.13
2018-03-04T08:01:34.648Z,40.20
2018-03-04T08:04:01.578Z,44.35
2018-03-04T08:06:28.456Z,47.25
2018-03-04T08:08:55.132Z,49.90
2018-03-04T08:11:21.771Z,51.78
2018-03-04T08:13:48.656Z,49.83
2018-03-04T08:16:15.544Z,53.20
2018-03-04T08:18:42.375Z,52.97
2018-03-04T08:21:09.297Z,43.55
2018-03-04T08:23:36.048Z,54.05
2018-03-04T08:26:08.479Z,50.42
2018-03-04T08:28:35.248Z,48.70
2018-03-04T08:31:01.956Z,53.28
2018-03-04T08:33:29.471Z,54.78
2018-03-04T08:35:56.196Z,56.33
2018-03-04T08:38:23.138Z,54.05
2018-03-04T08:40:50.112Z,61.45
2018-03-04T08:43:17.768Z,62.92
2018-03-04T08:45:44.908Z,62.78
2018-03-04T08:48:11.762Z,61.53
2018-03-04T08:50:38.449Z,64.22
2018-03-04T08:53:05.086Z,63.78
2018-03-04T08:55:31.734Z,61.08
2018-03-04T08:57:58.694Z,59.35
2018-03-04T09:00:25.684Z,57.53
2018-03-04T09:02:52.590Z,55.33
2018-03-04T09:05:19.314Z,55.40
2018-03-04T09:07:45.955Z,52.45
2018-03-04T09:10:13.850Z,58.55
2018-03-04T09:12:40.590Z,58.53
2018-03-04T09:15:07.238Z,57.00
2018-03-04T09:17:33.885Z,58.00
2018-03-04T09:20:00.532Z,58.55
2018-03-04T09:22:27.213Z,55.22
2018-03-04T09:24:53.860Z,56.70
2018-03-04T09:27:20.508Z,55.20
2018-03-04T09:29:47.151Z,56.78
2018-03-04T09:32:13.800Z,58.53
2018-03-04T09:34:40.763Z,68.60
2018-03-04T09:37:07.477Z,88.82
2018-03-04T09:39:34.167Z,88.55
2018-03-04T09:42:00.865Z,93.53
2018-03-04T09:44:27.518Z,87.80
2018-03-04T09:46:54.185Z,74.93
2018-03-04T09:49:20.842Z,68.05
2018-03-04T09:51:47.502Z,69.95
2018-03-04T09:54:14.198Z,65.95
2018-03-04T09:56:40.860Z,58.30
2018-03-04T09:59:07.522Z,54.17
2018-03-04T10:01:34.183Z,53.50
2018-03-04T10:04:00.872Z,53.85
2018-03-04T10:06:27.544Z,52.28
2018-03-04T10:08:54.199Z,54.63
2018-03-04T10:11:21.254Z,51.72
2018-03-04T10:13:47.905Z,48.28
2018-03-04T10:16:14.687Z,48.28
2018-03-04T10:18:41.325Z,50.00
2018-03-04T10:21:07.981Z,50.40
2018-03-04T10:23:34.616Z,44.17
2018-03-04T10:26:01.283Z,49.95
2018-03-04T10:28:27.924Z,50.47
2018-03-04T10:30:54.568Z,52.10
2018-03-04T10:33:21.207Z,53.42
2018-03-04T10:35:47.862Z,53.03
2018-03-04T10:38:14.508Z,52.50
2018-03-04T10:40:41.156Z,50.95
2018-03-04T10:43:07.800Z,46.95
2018-03-04T10:45:34.448Z,45.95
2018-03-04T10:48:01.112Z,48.20
2018-03-04T10:50:27.770Z,46.00
2018-03-04T10:52:54.437Z,49.83
2018-03-04T10:55:21.068Z,52.97
2018-03-04T10:57:47.732Z,48.42
2018-03-04T11:00:14.373Z,52.83
2018-03-04T11:02:41.971Z,51.65
2018-03-04T11:05:08.649Z,53.92
2018-03-04T11:07:35.325Z,49.97
2018-03-04T11:10:01.976Z,49.35
2018-03-04T11:12:28.640Z,51.28
2018-03-04T11:14:55.299Z,52.55
2018-03-04T11:17:21.957Z,51.13
2018-03-04T11:19:48.601Z,55.00
2018-03-04T11:22:15.264Z,53.28
2018-03-04T11:24:41.908Z,53.72
2018-03-04T11:27:08.616Z,48.83
2018-03-04T11:29:35.233Z,52.60
2018-03-04T11:32:01.888Z,54.95
2018-03-04T11:34:28.524Z,53.30
2018-03-04T11:36:55.165Z,49.65
2018-03-04T11:39:21.851Z,52.00
2018-03-04T11:41:48.463Z,48.75
2018-03-04T11:44:15.105Z,52.88
2018-03-04T11:46:41.739Z,51.13
2018-03-04T11:49:08.384Z,51.30
2018-03-04T11:51:35.020Z,49.45
2018-03-04T11:54:01.673Z,49.63
2018-03-04T11:56:28.316Z,42.55
2018-03-04T11:58:54.969Z,47.83
2018-03-04T12:01:21.632Z,52.97
2018-03-04T12:03:48.295Z,48.47
2018-03-04T12:06:14.960Z,53.65
2018-03-04T12:08:41.649Z,50.83
2018-03-04T12:11:08.296Z,52.72
2018-03-04T12:13:34.987Z,49.75
2018-03-04T12:16:01.629Z,51.75
2018-03-04T12:18:28.296Z,50.42
2018-03-04T12:20:54.962Z,53.28
2018-03-04T12:23:21.591Z,53.97
2018-03-04T12:25:48.244Z,51.30
2018-03-04T12:28:14.897Z,52.78
2018-03-04T12:30:41.540Z,53.65
2018-03-04T12:33:08.193Z,46.65
2018-03-04T12:35:34.832Z,52.85
2018-03-04T12:38:01.484Z,51.10
2018-03-04T12:40:28.120Z,50.50
2018-03-04T12:42:54.765Z,48.17
2018-03-04T12:45:21.413Z,51.17
2018-03-04T12:47:48.066Z,52.65
2018-03-04T12:50:14.699Z,48.30
2018-03-04T12:52:41.336Z,51.15
2018-03-04T12:55:08.023Z,52.83
2018-03-04T12:57:34.667Z,51.90
2018-03-04T13:00:01.330Z,51.28
2018-03-04T13:02:27.993Z,51.58
2018-03-04T13:04:54.678Z,38.47
2018-03-04T13:07:21.312Z,49.55
2018-03-04T13:09:47.968Z,50.55
2018-03-04T13:12:14.618Z,51.85
2018-03-04T13:14:41.279Z,50.55
2018-03-04T13:17:07.938Z,49.53
2018-03-04T13:19:34.601Z,44.35
2018-03-04T13:22:01.264Z,49.13
2018-03-04T13:24:27.917Z,50.20
2018-03-04T13:26:54.553Z,47.58
2018-03-04T13:29:21.183Z,51.92
2018-03-04T13:31:47.825Z,51.17
2018-03-04T13:34:14.484Z,51.17
2018-03-04T13:36:41.122Z,50.03
2018-03-04T13:39:07.764Z,46.47
2018-03-04T13:41:34.419Z,44.72
2018-03-04T13:44:01.089Z,49.83
2018-03-04T13:46:27.792Z,44.33
2018-03-04T13:48:54.401Z,48.95
2018-03-04T13:51:21.073Z,50.42
2018-03-04T13:53:47.718Z,46.90
2018-03-04T13:56:14.412Z,45.45
2018-03-04T13:58:41.056Z,49.60
2018-03-04T14:01:07.741Z,45.53
2018-03-04T14:03:34.391Z,44.40
2018-03-04T14:06:01.068Z,46.10
2018-03-04T14:08:27.725Z,46.88
2018-03-04T14:10:54.370Z,47.67
2018-03-04T14:13:21.028Z,48.33
2018-03-04T14:15:47.673Z,49.22
2018-03-04T14:18:14.316Z,50.95
2018-03-04T14:20:40.965Z,46.78
2018-03-04T14:23:07.626Z,45.78
2018-03-04T14:25:34.287Z,47.95
2018-03-04T14:28:00.964Z,46.30
2018-03-04T14:30:27.607Z,45.85
2018-03-04T14:32:54.267Z,48.03
2018-03-04T14:35:20.904Z,46.35
2018-03-04T14:37:47.565Z,48.40
2018-03-04T14:40:14.218Z,47.30
2018-03-04T14:42:40.857Z,47.40
2018-03-04T14:45:07.495Z,48.95
2018-03-04T14:47:34.136Z,51.20
2018-03-04T14:50:00.774Z,48.08
2018-03-04T14:52:27.414Z,48.75
2018-03-04T14:54:54.053Z,45.72
2018-03-04T14:57:20.717Z,46.78
2018-03-04T14:59:47.389Z,48.13
2018-03-04T15:02:14.035Z,45.12
2018-03-04T15:04:40.677Z,46.15
2018-03-04T15:07:07.364Z,45.65
2018-03-04T15:09:34.010Z,42.70
2018-03-04T15:12:00.645Z,40.92
2018-03-04T15:14:27.321Z,40.80
2018-03-04T15:16:53.965Z,38.88
2018-03-04T15:19:20.696Z,40.15
2018-03-04T15:21:47.340Z,40.78
2018-03-04T15:24:13.994Z,42.25
2018-03-04T15:26:40.636Z,39.72
2018-03-04T15:29:07.316Z,39.67
2018-03-04T15:31:34.018Z,39.85
2018-03-04T15:34:00.667Z,40.53
2018-03-04T15:36:27.306Z,39.35
2018-03-04T15:38:54.015Z,39.25
2018-03-04T15:41:20.644Z,40.60
2018-03-04T15:43:47.324Z,39.15
2018-03-04T15:46:13.993Z,41.53
2018-03-04T15:48:40.679Z,39.33
2018-03-04T15:51:07.346Z,41.63
2018-03-04T15:53:33.986Z,40.92
2018-03-04T15:56:00.632Z,41.00
2018-03-04T15:58:27.271Z,41.05
2018-03-04T16:00:53.941Z,42.00
2018-03-04T16:03:20.589Z,37.80
2018-03-04T16:05:47.253Z,39.30
2018-03-04T16:08:13.896Z,40.22
2018-03-04T16:10:40.549Z,39.25
2018-03-04T16:13:07.182Z,39.88
2018-03-04T16:15:33.836Z,40.05
2018-03-04T16:18:00.479Z,40.38
2018-03-04T16:20:27.140Z,40.40
2018-03-04T16:22:53.805Z,42.75
2018-03-04T16:25:20.460Z,39.25
2018-03-04T16:27:47.095Z,42.10
2018-03-04T16:30:13.755Z,38.20
2018-03-04T16:32:40.391Z,39.17
2018-03-04T16:35:07.050Z,39.42
2018-03-04T16:37:33.693Z,38.17
2018-03-04T16:40:00.323Z,38.88
2018-03-04T16:42:26.960Z,39.67
2018-03-04T16:44:53.601Z,36.08
2018-03-04T16:47:20.244Z,38.72
2018-03-04T16:49:46.900Z,35.05
2018-03-04T16:52:13.545Z,36.47
2018-03-04T16:54:40.189Z,37.28
2018-03-04T16:57:06.849Z,34.17
2018-03-04T16:59:33.490Z,35.35
2018-03-04T17:02:00.146Z,36.28
2018-03-04T17:04:26.785Z,36.20
2018-03-04T17:06:53.432Z,39.00
2018-03-04T17:09:20.068Z,37.80
2018-03-04T17:11:46.722Z,35.42
2018-03-04T17:14:13.395Z,38.63
2018-03-04T17:16:40.076Z,37.03
2018-03-04T17:19:06.719Z,40.28
2018-03-04T17:21:33.376Z,39.55
2018-03-04T17:24:00.017Z,40.20
2018-03-04T17:26:26.675Z,36.50
2018-03-04T17:28:53.324Z,36.25
2018-03-04T17:31:20.004Z,38.53
2018-03-04T17:33:46.665Z,37.35
2018-03-04T17:36:13.335Z,36.72
2018-03-04T17:38:40.799Z,35.13
2018-03-04T17:41:07.436Z,37.33
2018-03-04T17:43:34.080Z,39.88
2018-03-04T17:46:00.739Z,39.58
2018-03-04T17:48:27.454Z,41.20
2018-03-04T17:50:54.045Z,38.63
2018-03-04T17:53:20.686Z,38.05
2018-03-04T17:55:47.320Z,39.88
2018-03-04T17:58:13.971Z,42.65
2018-03-04T18:00:40.630Z,41.45
2018-03-04T18:03:07.333Z,39.60
2018-03-04T18:05:34.008Z,39.47
2018-03-04T18:08:00.680Z,43.70
2018-03-04T18:10:27.324Z,42.88
2018-03-04T18:12:53.993Z,42.25
2018-03-04T18:15:20.626Z,45.20
2018-03-04T18:17:47.268Z,40.45
2018-03-04T18:20:13.896Z,43.95
2018-03-04T18:22:40.561Z,40.75
2018-03-04T18:25:07.217Z,46.78
2018-03-04T18:27:33.884Z,43.87
2018-03-04T18:30:00.532Z,43.67
2018-03-04T18:32:27.164Z,46.15
2018-03-04T18:34:53.823Z,45.33
2018-03-04T18:37:20.462Z,43.63
2018-03-04T18:39:47.097Z,44.95
2018-03-04T18:42:13.729Z,45.45
2018-03-04T18:44:40.364Z,42.42
2018-03-04T18:47:07.012Z,41.28
2018-03-04T18:49:33.712Z,36.03
2018-03-04T18:52:00.338Z,32.92
2018-03-04T18:54:27.002Z,36.40
2018-03-04T18:56:53.641Z,39.83
2018-03-04T18:59:20.296Z,37.78
2018-03-04T19:01:46.934Z,40.10
2018-03-04T19:04:13.631Z,40.12
2018-03-04T19:06:40.272Z,38.85
2018-03-04T19:09:06.920Z,37.95
2018-03-04T19:11:33.561Z,38.80
2018-03-04T19:14:00.239Z,36.05
2018-03-04T19:16:26.878Z,39.83
2018-03-04T19:18:53.513Z,37.53
2018-03-04T19:21:20.165Z,39.30
2018-03-04T19:23:46.801Z,36.63
2018-03-04T19:26:13.442Z,38.55
2018-03-04T19:28:40.078Z,39.20
2018-03-04T19:31:06.714Z,40.38
2018-03-04T19:33:33.376Z,37.10
2018-03-04T19:36:00.027Z,38.35
2018-03-04T19:38:26.673Z,40.95
2018-03-04T19:40:53.308Z,41.55
2018-03-04T19:43:19.948Z,41.70
2018-03-04T19:45:46.620Z,41.85
2018-03-04T19:48:13.263Z,41.80
2018-03-04T19:50:39.908Z,42.90
2018-03-04T19:53:06.546Z,40.75
2018-03-04T19:55:33.185Z,45.35
2018-03-04T19:57:59.822Z,39.13
2018-03-04T20:00:26.473Z,39.78
2018-03-04T20:02:53.103Z,38.53
2018-03-04T20:05:19.770Z,37.72
2018-03-04T20:07:46.409Z,39.05
2018-03-04T20:10:13.049Z,37.95
2018-03-04T20:12:39.698Z,36.67
2018-03-04T20:15:06.356Z,37.38
2018-03-04T20:17:32.998Z,36.80
2018-03-04T20:19:59.642Z,33.75
2018-03-04T20:22:26.276Z,35.42
2018-03-04T20:24:52.929Z,35.80
2018-03-04T20:27:19.568Z,35.47
2018-03-04T20:29:46.206Z,34.50
2018-03-04T20:32:12.845Z,35.83
2018-03-04T20:34:39.495Z,37.28
2018-03-04T20:37:06.137Z,34.92
2018-03-04T20:39:32.780Z,37.47
2018-03-04T20:41:59.446Z,38.83
2018-03-04T20:44:26.095Z,35.42
2018-03-04T20:46:52.746Z,33.58
2018-03-04T20:49:19.380Z,33.67
2018-03-04T20:51:46.028Z,35.10
2018-03-04T20:54:12.673Z,35.40
2018-03-04T20:56:39.317Z,34.30
2018-03-04T20:59:05.956Z,31.48
2018-03-04T21:01:32.628Z,32.20
2018-03-04T21:03:59.264Z,32.28
2018-03-04T21:06:25.899Z,31.40
2018-03-04T21:08:52.557Z,32.97
2018-03-04T21:11:19.192Z,34.17
2018-03-04T21:13:45.852Z,28.65
2018-03-04T21:16:12.491Z,32.60
2018-03-04T21:18:39.150Z,31.55
2018-03-04T21:21:05.783Z,30.30
2018-03-04T21:23:32.445Z,32.88
2018-03-04T21:25:59.117Z,30.92
2018-03-04T21:28:25.772Z,34.17
2018-03-04T21:30:52.420Z,35.88
2018-03-04T21:33:19.114Z,35.30
2018-03-04T21:35:45.752Z,37.55
2018-03-04T21:38:12.423Z,39.03
2018-03-04T21:40:39.077Z,36.60
2018-03-04T21:43:05.774Z,39.55
2018-03-04T21:45:32.413Z,36.75
2018-03-04T21:47:59.072Z,43.17
2018-03-04T21:50:25.724Z,41.42
2018-03-04T21:52:52.388Z,40.60
2018-03-04T21:55:19.045Z,39.03
2018-03-04T21:57:45.705Z,44.05
2018-03-04T22:00:12.346Z,39.78
2018-03-04T22:02:38.982Z,40.25
2018-03-04T22:05:05.685Z,41.17
2018-03-04T22:07:32.341Z,42.08
2018-03-04T22:09:58.991Z,43.78
2018-03-04T22:12:25.640Z,44.80
2018-03-04T22:14:52.295Z,44.65
2018-03-04T22:17:18.953Z,44.05
2018-03-04T22:19:45.622Z,42.75
2018-03-04T22:22:12.271Z,42.62
2018-03-04T22:24:38.931Z,41.78
2018-03-04T22:27:05.576Z,42.00
2018-03-04T22:29:32.232Z,41.95
2018-03-04T22:31:58.883Z,40.20
2018-03-04T22:34:25.555Z,42.50
2018-03-04T22:36:52.199Z,42.50
2018-03-04T22:39:18.887Z,44.17
2018-03-04T22:41:45.536Z,44.85
2018-03-04T22:44:12.200Z,42.15
2018-03-04T22:46:38.858Z,43.28
2018-03-04T22:49:05.542Z,44.30
2018-03-04T22:51:32.222Z,42.92
2018-03-04T22:53:58.905Z,42.33
2018-03-04T22:56:25.565Z,43.65
2018-03-04T22:58:52.232Z,43.30
2018-03-04T23:01:18.885Z,44.67
2018-03-04T23:03:45.543Z,43.05
2018-03-04T23:06:12.184Z,46.88
2018-03-04T23:08:38.841Z,46.17
2018-03-04T23:11:05.501Z,47.20
2018-03-04T23:13:32.159Z,49.33
2018-03-04T23:15:58.810Z,45.40
2018-03-04T23:18:25.491Z,46.13
2018-03-04T23:20:52.166Z,45.80
2018-03-04T23:23:18.827Z,44.63
2018-03-04T23:25:45.493Z,44.55
2018-03-04T23:28:12.158Z,44.35
2018-03-04T23:30:38.817Z,44.88
2018-03-04T23:33:05.470Z,44.90
2018-03-04T23:35:32.160Z,45.60
2018-03-04T23:37:58.874Z,44.47
2018-03-04T23:40:25.546Z,49.00
2018-03-04T23:42:52.208Z,45.33
2018-03-04T23:45:18.885Z,46.53
2018-03-04T23:47:45.544Z,48.38
2018-03-04T23:50:12.223Z,45.95
2018-03-04T23:52:38.882Z,46.33
2018-03-04T23:55:05.556Z,44.97
2018-03-04T23:57:32.206Z,50.45
2018-03-04T23:59:58.903Z,48.03
